Main page
METAR-TAF:

METAR-TAF

Airports :

Oban, Scotland

Oban Airport

latitude: 56-27-49N, longitude: 5-24-00W, elevation: 7 m

Current weather observation

The report was made 1 hour and 27 minutes ago, at 16:20 UTC
Wind 10 kt from the West/Southwest, varying between South/Southwest and West
Temperature 10°C
Humidity 62%
Pressure 1014 hPa
Visibility 10 km or more
Few clouds at a height of 3600 ft

METAR: EGEO 281620Z 25010KT 210V270 9999 FEW036 10/03 Q1014

Time: 18:47 (17:47 UTC)

Forecast

The report was made 3 hours and 44 minutes ago, at 14:03 UTC
Forecast valid from 28 at 15 UTC to 28 at 17 UTC
Wind 7 kt from the West
Visibility 10 km or more
Scattered clouds at a height of 3000 ft

TAF: EGEO 281403Z 2815/2817 27007KT 9999 SCT030

Weather observations and forecasts of more than 4000 airports (METAR and TAF reports).

The available stations are represented by yellow and red dots on the map.

Hover mouse over dot to see the name of the station.

Then click to see weather observations and forecasts.

To change the map : click on the green buttons with a black cross to zoom in, on the green button with a dash to zoom out, or on the green arrows for adjacent maps.


METAR-TAF: